Grand Rapids, Ohio
Current Conditions -  °F | °C
As of 6:18 AM on Friday 24 Oct 2014 (Local Time) from KTOL Reporting Station
Haze Haze  
Wind Chill: 36°   Ceiling: Unl
Heat Index: 36°   Visibility: 2.5mi
Dew Point: 34°   Wind: 0mph
Humidity: 93%   Direction: NA
Pressure: 30.09"   Gusts: NA
Location:  41.41°N, 83.86°W
Report Text: KTOL 241018Z 00000KT 2 1/2SM BR CLR 02/01 A3009 RMK AO2 VIS 1 3/4V4
Loading
Personal Weather Stations






























Interactive Weather Map
Tropical Storm Tracking
New forecast layout! Learn more

10-Day Weather Forecast

Advertisements
Track Severe Weather on mobile